createdAt,value
2023-02-25T00:01:51.163Z,98284.53
2023-02-25T00:06:01.567Z,98286.69
2023-02-25T00:10:06.666Z,98278.50
2023-02-25T00:14:11.640Z,98273.41
2023-02-25T00:18:17.275Z,98249.75
2023-02-25T00:22:21.345Z,98275.25
2023-02-25T00:26:26.036Z,98274.75
2023-02-25T00:30:33.648Z,98270.75
2023-02-25T00:34:38.552Z,98298.44
2023-02-25T00:38:43.198Z,98292.03
2023-02-25T00:42:50.462Z,98301.78
2023-02-25T00:46:55.003Z,98301.22
2023-02-25T00:50:59.997Z,98299.69
2023-02-25T00:55:04.345Z,98319.31
2023-02-25T00:59:07.655Z,98321.50
2023-02-25T01:03:10.824Z,98320.00
2023-02-25T01:07:17.113Z,98316.03
2023-02-25T01:11:29.556Z,98320.66
2023-02-25T01:15:33.554Z,98319.78
2023-02-25T01:19:37.535Z,98328.75
2023-02-25T01:23:52.512Z,98332.41
2023-02-25T01:27:56.918Z,98336.38
2023-02-25T01:32:02.273Z,98332.63
2023-02-25T01:36:09.215Z,98334.16
2023-02-25T01:40:18.059Z,98326.44
2023-02-25T01:44:23.603Z,98322.53
2023-02-25T01:48:33.902Z,98329.03
2023-02-25T01:52:39.490Z,98328.19
2023-02-25T01:56:49.280Z,98321.59
2023-02-25T02:00:55.719Z,98330.44
2023-02-25T02:04:59.617Z,98302.75
2023-02-25T02:09:10.960Z,98312.03
2023-02-25T02:13:19.725Z,98303.69
2023-02-25T02:17:30.288Z,98321.91
2023-02-25T02:21:58.119Z,98332.69
2023-02-25T02:26:39.772Z,98325.22
2023-02-25T02:30:51.709Z,98325.94
2023-02-25T02:35:04.467Z,98330.94
2023-02-25T02:39:22.467Z,98326.59
2023-02-25T02:43:37.891Z,98331.25
2023-02-25T02:47:43.076Z,98335.88
2023-02-25T02:51:53.971Z,98334.41
2023-02-25T02:56:00.959Z,98345.81
2023-02-25T03:00:14.043Z,98342.97
2023-02-25T03:04:28.439Z,98347.97
2023-02-25T03:08:36.276Z,98351.31
2023-02-25T03:12:42.449Z,98350.69
2023-02-25T03:16:59.662Z,98344.56
2023-02-25T03:21:24.888Z,98345.47
2023-02-25T03:25:32.254Z,98342.81
2023-02-25T03:29:46.632Z,98351.31
2023-02-25T03:33:57.117Z,98355.66
2023-02-25T03:38:03.696Z,98356.69
2023-02-25T03:42:22.932Z,98350.81
2023-02-25T03:46:30.517Z,98352.53
2023-02-25T03:50:37.709Z,98367.47
2023-02-25T03:54:47.241Z,98359.56
2023-02-25T04:04:16.847Z,98356.44
2023-02-25T04:08:21.128Z,98355.06
2023-02-25T04:12:24.859Z,98354.38
2023-02-25T04:16:28.324Z,98353.56
2023-02-25T04:20:37.139Z,98350.44
2023-02-25T04:24:41.557Z,98360.66
2023-02-25T04:28:45.484Z,98361.78
2023-02-25T04:32:49.781Z,98363.03
2023-02-25T04:36:55.285Z,98372.31
2023-02-25T04:41:01.225Z,98352.97
2023-02-25T04:45:05.950Z,98367.56
2023-02-25T04:49:13.726Z,98375.25
2023-02-25T04:53:19.266Z,98377.22
2023-02-25T04:57:26.201Z,98379.38
2023-02-25T05:01:30.483Z,98367.47
2023-02-25T05:05:43.060Z,98371.97
2023-02-25T05:09:55.601Z,98378.41
2023-02-25T05:14:05.065Z,98362.59
2023-02-25T05:18:09.136Z,98375.66
2023-02-25T05:22:13.077Z,98354.78
2023-02-25T05:26:22.642Z,98369.28
2023-02-25T05:30:32.323Z,98362.72
2023-02-25T05:34:37.378Z,98366.44
2023-02-25T05:38:41.144Z,98362.56
2023-02-25T05:42:49.655Z,98368.66
2023-02-25T05:46:53.578Z,98384.75
2023-02-25T05:51:02.961Z,98390.41
2023-02-25T05:55:09.358Z,98396.22
2023-02-25T05:59:16.864Z,98395.69
2023-02-25T06:03:23.650Z,98385.81
2023-02-25T06:07:33.482Z,98392.19
2023-02-25T06:11:46.725Z,98386.88
2023-02-25T06:15:51.432Z,98389.22
2023-02-25T06:19:56.418Z,98394.44
2023-02-25T06:24:05.536Z,98395.94
2023-02-25T06:28:09.868Z,98398.19
2023-02-25T06:32:15.665Z,98396.41
2023-02-25T06:36:23.960Z,98410.03
2023-02-25T06:40:28.557Z,98386.88
2023-02-25T06:44:32.112Z,98421.53
2023-02-25T06:48:39.730Z,98424.13
2023-02-25T06:52:44.802Z,98427.44
2023-02-25T06:56:51.228Z,98435.13
2023-02-25T07:00:58.820Z,98443.78
2023-02-25T07:05:06.482Z,98445.81
2023-02-25T07:09:15.374Z,98436.38
2023-02-25T07:13:19.003Z,98449.31
2023-02-25T07:17:23.271Z,98442.88
2023-02-25T07:21:29.941Z,98445.28
2023-02-25T07:25:33.680Z,98436.94
2023-02-25T07:29:45.118Z,98450.22
2023-02-25T07:33:49.689Z,98463.09
2023-02-25T07:38:01.737Z,98472.63
2023-02-25T07:42:05.989Z,98469.25
2023-02-25T07:46:10.252Z,98481.88
2023-02-25T07:50:13.964Z,98472.56
2023-02-25T07:54:21.644Z,98463.03
2023-02-25T07:58:31.461Z,98458.97
2023-02-25T08:02:35.991Z,98466.56
2023-02-25T08:06:41.968Z,98457.59
2023-02-25T08:10:47.653Z,98460.78
2023-02-25T08:14:51.432Z,98475.91
2023-02-25T08:18:55.472Z,98465.22
2023-02-25T08:22:59.698Z,98464.53
2023-02-25T08:27:07.887Z,98461.69
2023-02-25T08:31:21.278Z,98466.56
2023-02-25T08:35:26.186Z,98477.53
2023-02-25T08:39:39.234Z,98471.50
2023-02-25T08:43:44.655Z,98475.63
2023-02-25T08:47:48.200Z,98485.63
2023-02-25T08:51:53.110Z,98483.09
2023-02-25T08:55:56.495Z,98478.41
2023-02-25T09:00:05.879Z,98474.34
2023-02-25T09:04:09.907Z,98480.22
2023-02-25T09:08:15.254Z,98481.38
2023-02-25T09:12:19.753Z,98469.50
2023-02-25T09:16:30.661Z,98488.88
2023-02-25T09:20:37.568Z,98485.03
2023-02-25T09:24:41.863Z,98485.88
2023-02-25T09:28:50.427Z,98489.63
2023-02-25T09:32:56.202Z,98493.28
2023-02-25T09:37:00.369Z,98501.44
2023-02-25T09:41:04.757Z,98494.28
2023-02-25T09:45:18.053Z,98496.91
2023-02-25T09:49:28.177Z,98488.72
2023-02-25T09:53:38.618Z,98495.91
2023-02-25T09:57:47.249Z,98483.38
2023-02-25T10:01:57.340Z,98479.09
2023-02-25T10:06:06.728Z,98480.78
2023-02-25T10:10:17.504Z,98471.44
2023-02-25T10:14:38.412Z,98469.59
2023-02-25T10:18:55.867Z,98466.25
2023-02-25T10:23:08.815Z,98464.75
2023-02-25T10:27:32.637Z,98464.75
2023-02-25T10:31:38.221Z,98454.84
2023-02-25T10:35:43.410Z,98444.97
2023-02-25T10:39:58.630Z,98449.63
2023-02-25T10:44:02.362Z,98471.78
2023-02-25T10:48:10.122Z,98474.66
2023-02-25T10:52:17.808Z,98487.59
2023-02-25T10:56:23.335Z,98495.59
2023-02-25T11:00:29.844Z,98471.19
2023-02-25T11:04:38.400Z,98486.34
2023-02-25T11:08:44.568Z,98449.25
2023-02-25T11:12:50.786Z,98494.00
2023-02-25T11:17:08.253Z,98479.66
2023-02-25T11:21:14.562Z,98468.84
2023-02-25T11:25:20.908Z,98470.41
2023-02-25T11:29:33.371Z,98474.84
2023-02-25T11:33:38.757Z,98472.09
2023-02-25T11:37:45.520Z,98462.50
2023-02-25T11:41:50.717Z,98483.66
2023-02-25T11:45:57.606Z,98463.59
2023-02-25T11:50:18.329Z,98444.47
2023-02-25T11:54:27.162Z,98450.25
2023-02-25T11:58:38.089Z,98457.28
2023-02-25T12:02:51.985Z,98449.16
2023-02-25T12:07:11.909Z,98442.25
2023-02-25T12:12:06.047Z,98461.13
2023-02-25T12:16:34.562Z,98452.91
2023-02-25T12:21:15.559Z,98442.66
2023-02-25T12:25:28.436Z,98447.19
2023-02-25T12:29:43.104Z,98458.81
2023-02-25T12:34:13.763Z,98444.28
2023-02-25T12:38:37.451Z,98435.81
2023-02-25T12:42:49.624Z,98410.41
2023-02-25T12:47:04.228Z,98428.59
2023-02-25T12:51:33.454Z,98434.38
2023-02-25T12:55:46.193Z,98432.84
2023-02-25T13:00:00.747Z,98414.44
2023-02-25T13:04:30.006Z,98426.09
2023-02-25T13:08:56.842Z,98433.63
2023-02-25T13:13:13.510Z,98424.53
2023-02-25T13:17:38.010Z,98422.03
2023-02-25T13:21:51.837Z,98425.97
2023-02-25T13:26:21.877Z,98418.63
2023-02-25T13:30:37.161Z,98410.53
2023-02-25T13:34:46.064Z,98387.53
2023-02-25T13:39:06.305Z,98385.28
2023-02-25T13:43:27.651Z,98384.63
2023-02-25T13:47:42.857Z,98378.06
2023-02-25T13:52:07.520Z,98377.78
2023-02-25T13:56:28.501Z,98397.25
2023-02-25T14:01:09.601Z,98398.03
2023-02-25T14:05:39.076Z,98385.66
2023-02-25T14:09:48.725Z,98386.13
2023-02-25T14:14:22.904Z,98391.81
2023-02-25T14:18:47.560Z,98376.47
2023-02-25T14:22:53.789Z,98397.63
2023-02-25T14:27:03.773Z,98396.34
2023-02-25T14:31:14.260Z,98400.56
2023-02-25T14:35:29.550Z,98407.97
2023-02-25T14:39:44.656Z,98410.00
2023-02-25T14:43:49.490Z,98419.69
2023-02-25T14:47:58.596Z,98404.75
2023-02-25T14:52:26.889Z,98411.97
2023-02-25T14:56:57.129Z,98421.88
2023-02-25T15:01:24.890Z,98415.06
2023-02-25T15:05:50.938Z,98422.91
2023-02-25T15:10:25.031Z,98428.41
2023-02-25T15:14:48.168Z,98428.69
2023-02-25T15:19:40.551Z,98452.84
2023-02-25T15:23:51.026Z,98466.38
2023-02-25T15:27:58.440Z,98460.00
2023-02-25T15:32:18.050Z,98468.34
2023-02-25T15:36:29.465Z,98473.72
2023-02-25T15:40:46.466Z,98482.59
2023-02-25T15:44:49.867Z,98487.47
2023-02-25T15:49:06.274Z,98480.13
2023-02-25T15:53:10.744Z,98483.00
2023-02-25T15:57:38.072Z,98480.66
2023-02-25T16:01:53.667Z,98494.00
2023-02-25T16:06:02.385Z,98498.19
2023-02-25T16:10:12.127Z,98483.81
2023-02-25T16:14:20.144Z,98472.38
2023-02-25T16:18:29.725Z,98487.06
2023-02-25T16:22:44.939Z,98490.31
2023-02-25T16:26:58.329Z,98493.84
2023-02-25T16:31:04.908Z,98506.31
2023-02-25T16:35:11.953Z,98508.91
2023-02-25T16:39:20.572Z,98518.78
2023-02-25T16:43:28.165Z,98527.06
2023-02-25T16:47:33.371Z,98539.50
2023-02-25T16:51:44.184Z,98536.34
2023-02-25T16:55:50.010Z,98543.97
2023-02-25T17:00:08.923Z,98544.47
2023-02-25T17:04:21.074Z,98563.63
2023-02-25T17:08:24.804Z,98571.41
2023-02-25T17:12:32.213Z,98581.88
2023-02-25T17:16:39.069Z,98589.72
2023-02-25T17:20:43.516Z,98579.81
2023-02-25T17:24:46.932Z,98602.22
2023-02-25T17:28:54.184Z,98599.25
2023-02-25T17:32:59.500Z,98611.47
2023-02-25T17:37:06.226Z,98618.78
2023-02-25T17:41:11.249Z,98616.00
2023-02-25T17:45:44.590Z,98623.56
2023-02-25T17:49:49.224Z,98646.78
2023-02-25T17:54:01.264Z,98643.44
2023-02-25T17:58:09.091Z,98650.59
2023-02-25T18:02:46.056Z,98657.03
2023-02-25T18:06:54.327Z,98650.50
2023-02-25T18:11:04.215Z,98652.34
2023-02-25T18:15:19.682Z,98647.13
2023-02-25T18:19:33.828Z,98669.94
2023-02-25T18:23:38.567Z,98663.94
2023-02-25T18:27:49.423Z,98674.56
2023-02-25T18:31:53.513Z,98677.97
2023-02-25T18:36:00.393Z,98679.56
2023-02-25T18:40:16.279Z,98672.69
2023-02-25T18:44:23.212Z,98690.34
2023-02-25T18:48:32.866Z,98682.47
2023-02-25T18:52:38.284Z,98698.47
2023-02-25T18:56:44.671Z,98714.59
2023-02-25T19:00:50.127Z,98707.75
2023-02-25T19:04:56.763Z,98711.22
2023-02-25T19:09:06.458Z,98715.41
2023-02-25T19:13:23.425Z,98724.56
2023-02-25T19:17:27.133Z,98723.69
2023-02-25T19:21:40.413Z,98731.47
2023-02-25T19:25:46.665Z,98730.59
2023-02-25T19:29:50.761Z,98739.69
2023-02-25T19:33:54.440Z,98743.66
2023-02-25T19:37:58.094Z,98749.78
2023-02-25T19:42:04.699Z,98760.31
2023-02-25T19:46:10.200Z,98760.44
2023-02-25T19:50:14.836Z,98762.31
2023-02-25T19:54:21.551Z,98765.81
2023-02-25T19:58:26.329Z,98758.03
2023-02-25T20:02:30.053Z,98780.84
2023-02-25T20:06:35.143Z,98787.44
2023-02-25T20:10:38.454Z,98800.19
2023-02-25T20:14:43.286Z,98792.63
2023-02-25T20:18:53.495Z,98804.03
2023-02-25T20:22:56.974Z,98798.44
2023-02-25T20:27:00.623Z,98803.78
2023-02-25T20:31:12.596Z,98801.09
2023-02-25T20:35:20.839Z,98810.97
2023-02-25T20:39:49.425Z,98811.59
2023-02-25T20:43:52.956Z,98807.59
2023-02-25T20:47:58.245Z,98825.56
2023-02-25T20:52:02.665Z,98825.91
2023-02-25T20:56:06.987Z,98827.09
2023-02-25T21:00:15.068Z,98832.81
2023-02-25T21:04:21.007Z,98852.00
2023-02-25T21:08:24.629Z,98846.63
2023-02-25T21:12:28.242Z,98858.44
2023-02-25T21:16:32.677Z,98861.59
2023-02-25T21:20:37.836Z,98874.91
2023-02-25T21:24:41.419Z,98878.44
2023-02-25T21:28:46.224Z,98869.25
2023-02-25T21:32:49.338Z,98879.38
2023-02-25T21:36:54.590Z,98888.88
2023-02-25T21:40:58.829Z,98849.16
2023-02-25T21:45:02.428Z,98885.84
2023-02-25T21:49:06.662Z,98890.63
2023-02-25T21:53:11.445Z,98887.88
2023-02-25T21:57:15.129Z,98885.13
2023-02-25T22:01:20.338Z,98894.91
2023-02-25T22:05:24.146Z,98908.97
2023-02-25T22:09:29.062Z,98907.00
2023-02-25T22:13:35.326Z,98905.19
2023-02-25T22:17:38.745Z,98915.72
2023-02-25T22:21:42.288Z,98916.91
2023-02-25T22:25:48.895Z,98918.38
2023-02-25T22:29:52.656Z,98911.03
2023-02-25T22:33:57.577Z,98932.66
2023-02-25T22:38:01.012Z,98899.22
2023-02-25T22:42:05.895Z,98924.13
2023-02-25T22:46:10.598Z,98928.38
2023-02-25T22:50:14.190Z,98929.94
2023-02-25T22:54:19.603Z,98944.44
2023-02-25T22:58:24.628Z,98941.50
2023-02-25T23:02:28.849Z,98944.69
2023-02-25T23:06:43.487Z,98939.84
2023-02-25T23:10:48.983Z,98949.69
2023-02-25T23:14:55.063Z,98951.31
2023-02-25T23:19:00.602Z,98942.78
2023-02-25T23:23:05.891Z,98950.25
2023-02-25T23:27:10.666Z,98961.38
2023-02-25T23:31:36.828Z,98969.09
2023-02-25T23:35:44.793Z,98968.13
2023-02-25T23:39:48.973Z,98983.53
2023-02-25T23:43:58.052Z,98976.44
2023-02-25T23:48:03.454Z,98982.56
2023-02-25T23:52:07.329Z,98962.09
2023-02-25T23:56:24.779Z,98952.53
